createdAt,value
2023-04-27T00:00:36.256Z,11.00
2023-04-27T00:01:27.043Z,12.10
2023-04-27T00:02:17.935Z,11.00
2023-04-27T00:03:08.970Z,10.90
2023-04-27T00:04:00.090Z,11.00
2023-04-27T00:04:51.150Z,10.70
2023-04-27T00:05:42.128Z,9.10
2023-04-27T00:06:32.928Z,12.00
2023-04-27T00:07:23.735Z,10.20
2023-04-27T00:08:14.525Z,10.20
2023-04-27T00:09:05.325Z,10.70
2023-04-27T00:09:56.128Z,10.80
2023-04-27T00:10:46.927Z,10.80
2023-04-27T00:11:37.703Z,13.50
2023-04-27T00:12:28.478Z,13.00
2023-04-27T00:13:19.266Z,11.00
2023-04-27T00:14:10.062Z,10.70
2023-04-27T00:15:00.867Z,11.60
2023-04-27T00:15:51.646Z,10.50
2023-04-27T00:16:42.492Z,12.30
2023-04-27T00:17:33.254Z,10.20
2023-04-27T00:18:24.016Z,9.70
2023-04-27T00:19:15.113Z,10.40
2023-04-27T00:20:06.077Z,11.10
2023-04-27T00:20:56.843Z,10.90
2023-04-27T00:21:47.655Z,11.60
2023-04-27T00:22:38.435Z,11.30
2023-04-27T00:23:29.226Z,11.10
2023-04-27T00:24:20.040Z,13.00
2023-04-27T00:25:10.800Z,10.90
2023-04-27T00:26:01.676Z,13.30
2023-04-27T00:26:52.418Z,13.10
2023-04-27T00:27:43.214Z,9.60
2023-04-27T00:28:34.013Z,10.50
2023-04-27T00:29:24.812Z,9.30
2023-04-27T00:30:15.597Z,9.80
2023-04-27T00:31:06.362Z,12.00
2023-04-27T00:31:57.211Z,10.60
2023-04-27T00:32:48.000Z,11.00
2023-04-27T00:33:38.775Z,11.50
2023-04-27T00:34:29.546Z,12.00
2023-04-27T00:35:20.336Z,11.50
2023-04-27T00:36:11.109Z,11.70
2023-04-27T00:37:01.887Z,13.00
2023-04-27T00:37:52.673Z,10.90
2023-04-27T00:38:43.456Z,10.60
2023-04-27T00:39:34.289Z,11.60
2023-04-27T00:40:25.085Z,10.80
2023-04-27T00:41:15.890Z,11.00
2023-04-27T00:42:06.647Z,13.70
2023-04-27T00:42:57.433Z,12.60
2023-04-27T00:43:48.230Z,11.80
2023-04-27T00:44:39.827Z,13.00
2023-04-27T00:45:30.092Z,10.70
2023-04-27T00:46:20.905Z,13.20
2023-04-27T00:47:11.667Z,11.10
2023-04-27T00:48:02.497Z,12.40
2023-04-27T00:48:53.268Z,11.60
2023-04-27T00:49:44.045Z,10.60
2023-04-27T00:50:34.836Z,10.80
2023-04-27T00:51:25.619Z,10.90
2023-04-27T00:52:16.376Z,13.70
2023-04-27T00:53:07.161Z,11.40
2023-04-27T00:53:57.953Z,10.00
2023-04-27T00:54:48.747Z,11.20
2023-04-27T00:55:39.535Z,12.10
2023-04-27T00:56:30.301Z,11.60
2023-04-27T00:57:21.086Z,10.20
2023-04-27T00:58:11.864Z,10.60
2023-04-27T00:59:02.656Z,11.30
2023-04-27T00:59:53.459Z,12.00
2023-04-27T01:00:44.244Z,13.50
2023-04-27T01:01:35.060Z,10.40
2023-04-27T01:02:25.979Z,13.20
2023-04-27T01:03:16.814Z,14.60
2023-04-27T01:04:08.258Z,11.40
2023-04-27T01:04:59.197Z,11.10
2023-04-27T01:05:49.963Z,10.70
2023-04-27T01:06:40.795Z,11.10
2023-04-27T01:07:31.546Z,12.20
2023-04-27T01:08:22.321Z,11.70
2023-04-27T01:09:13.345Z,11.80
2023-04-27T01:10:04.199Z,9.70
2023-04-27T01:10:54.972Z,12.10
2023-04-27T01:11:45.759Z,11.10
2023-04-27T01:12:36.551Z,13.20
2023-04-27T01:13:27.327Z,10.70
2023-04-27T01:14:18.151Z,9.90
2023-04-27T01:15:08.925Z,11.40
2023-04-27T01:15:59.694Z,11.60
2023-04-27T01:16:50.475Z,9.50
2023-04-27T01:17:41.295Z,12.10
2023-04-27T01:18:32.024Z,14.10
2023-04-27T01:19:22.822Z,12.40
2023-04-27T01:20:13.646Z,12.40
2023-04-27T01:21:04.438Z,11.00
2023-04-27T01:21:55.189Z,11.90
2023-04-27T01:22:45.988Z,12.00
2023-04-27T01:23:36.760Z,11.20
2023-04-27T01:24:27.547Z,13.50
2023-04-27T01:25:18.329Z,12.70
2023-04-27T01:26:09.114Z,11.30
2023-04-27T01:26:59.909Z,12.60
2023-04-27T01:27:50.696Z,13.10
2023-04-27T01:28:41.475Z,11.90
2023-04-27T01:29:32.309Z,14.00
2023-04-27T01:30:23.072Z,14.70
2023-04-27T01:31:13.952Z,12.20
2023-04-27T01:32:04.721Z,13.70
2023-04-27T01:32:55.533Z,13.10
2023-04-27T01:33:46.351Z,11.90
2023-04-27T01:34:37.101Z,12.60
2023-04-27T01:35:28.515Z,12.60
2023-04-27T01:36:19.304Z,13.60
2023-04-27T01:37:10.082Z,14.60
2023-04-27T01:38:00.886Z,13.00
2023-04-27T01:38:51.676Z,10.50
2023-04-27T01:39:42.473Z,13.90
2023-04-27T01:40:33.265Z,10.70
2023-04-27T01:41:24.041Z,14.80
2023-04-27T01:42:14.862Z,12.60
2023-04-27T01:43:05.629Z,12.30
2023-04-27T01:43:56.406Z,13.90
2023-04-27T01:44:47.194Z,13.90
2023-04-27T01:45:37.969Z,13.50
2023-04-27T01:46:28.786Z,13.10
2023-04-27T01:47:20.062Z,12.60
2023-04-27T01:48:10.862Z,13.40
2023-04-27T01:49:01.624Z,10.60
2023-04-27T01:49:52.415Z,17.10
2023-04-27T01:50:43.180Z,12.50
2023-04-27T01:51:33.986Z,12.20
2023-04-27T01:52:24.804Z,14.90
2023-04-27T01:53:15.551Z,11.50
2023-04-27T01:54:06.326Z,11.50
2023-04-27T01:54:57.116Z,14.70
2023-04-27T01:55:47.890Z,12.60
2023-04-27T01:56:38.689Z,11.60
2023-04-27T01:57:29.544Z,13.00
2023-04-27T01:58:20.288Z,12.20
2023-04-27T01:59:11.122Z,11.60
2023-04-27T02:00:01.980Z,12.80
2023-04-27T02:00:52.759Z,9.90
2023-04-27T02:01:43.590Z,13.30
2023-04-27T02:02:34.464Z,10.50
2023-04-27T02:03:25.404Z,12.10
2023-04-27T02:04:16.453Z,11.60
2023-04-27T02:05:07.392Z,11.50
2023-04-27T02:05:58.166Z,10.40
2023-04-27T02:06:48.965Z,10.70
2023-04-27T02:07:39.759Z,9.50
2023-04-27T02:08:30.543Z,12.60
2023-04-27T02:09:21.330Z,10.40
2023-04-27T02:10:12.120Z,10.30
2023-04-27T02:11:02.917Z,9.80
2023-04-27T02:11:53.679Z,11.10
2023-04-27T02:12:44.471Z,9.80
2023-04-27T02:13:35.245Z,11.10
2023-04-27T02:14:26.063Z,13.20
2023-04-27T02:15:16.811Z,11.40
2023-04-27T02:16:07.735Z,10.50
2023-04-27T02:16:58.506Z,10.70
2023-04-27T02:17:49.341Z,11.50
2023-04-27T02:18:40.095Z,11.90
2023-04-27T02:19:30.896Z,10.20
2023-04-27T02:20:21.695Z,9.20
2023-04-27T02:21:12.542Z,9.90
2023-04-27T02:22:03.284Z,11.50
2023-04-27T02:22:54.052Z,12.50
2023-04-27T02:23:44.839Z,13.20
2023-04-27T02:24:35.638Z,10.60
2023-04-27T02:25:26.421Z,11.60
2023-04-27T02:26:17.329Z,10.90
2023-04-27T02:27:08.123Z,10.00
2023-04-27T02:27:59.299Z,11.10
2023-04-27T02:28:50.548Z,11.20
2023-04-27T02:29:41.846Z,9.00
2023-04-27T02:30:32.897Z,12.90
2023-04-27T02:31:23.724Z,13.20
2023-04-27T02:32:14.487Z,11.50
2023-04-27T02:33:05.325Z,14.10
2023-04-27T02:33:56.047Z,11.60
2023-04-27T02:34:46.840Z,12.10
2023-04-27T02:35:37.644Z,10.80
2023-04-27T02:36:28.439Z,14.00
2023-04-27T02:37:19.211Z,13.20
2023-04-27T02:38:10.026Z,11.50
2023-04-27T02:39:00.829Z,11.70
2023-04-27T02:39:51.621Z,13.50
2023-04-27T02:40:42.415Z,13.20
2023-04-27T02:41:33.191Z,14.10
2023-04-27T02:42:23.980Z,14.10
2023-04-27T02:43:14.765Z,13.90
2023-04-27T02:44:05.567Z,15.40
2023-04-27T02:44:56.334Z,13.10
2023-04-27T02:45:47.120Z,12.00
2023-04-27T02:46:37.956Z,14.60
2023-04-27T02:47:28.744Z,12.00
2023-04-27T02:48:19.483Z,13.80
2023-04-27T02:49:10.273Z,12.80
2023-04-27T02:50:01.067Z,13.10
2023-04-27T02:50:51.834Z,11.50
2023-04-27T02:51:42.616Z,13.30
2023-04-27T02:52:33.404Z,11.10
2023-04-27T02:53:24.234Z,13.00
2023-04-27T02:54:15.004Z,13.50
2023-04-27T02:55:05.823Z,13.30
2023-04-27T02:55:56.612Z,12.40
2023-04-27T02:56:47.398Z,12.50
2023-04-27T02:57:38.213Z,12.50
2023-04-27T02:58:28.982Z,12.80
2023-04-27T02:59:19.770Z,15.30
2023-04-27T03:00:10.582Z,14.30
2023-04-27T03:01:01.442Z,13.70
2023-04-27T03:01:52.221Z,16.80
2023-04-27T03:02:43.269Z,13.40
2023-04-27T03:03:34.259Z,13.30
2023-04-27T03:04:25.263Z,13.20
2023-04-27T03:05:16.120Z,15.60
2023-04-27T03:06:07.367Z,11.90
2023-04-27T03:06:58.293Z,15.60
2023-04-27T03:07:49.174Z,13.80
2023-04-27T03:08:40.266Z,11.90
2023-04-27T03:09:31.479Z,12.40
2023-04-27T03:10:22.156Z,14.40
2023-04-27T03:11:12.944Z,15.40
2023-04-27T03:12:03.698Z,13.40
2023-04-27T03:12:54.474Z,11.70
2023-04-27T03:13:45.265Z,13.40
2023-04-27T03:14:36.050Z,12.10
2023-04-27T03:15:26.813Z,13.40
2023-04-27T03:16:17.589Z,13.50
2023-04-27T03:17:08.341Z,12.00
2023-04-27T03:17:59.123Z,13.60
2023-04-27T03:18:49.912Z,13.70
2023-04-27T03:19:40.756Z,11.50
2023-04-27T03:20:31.628Z,12.20
2023-04-27T03:21:22.488Z,15.90
2023-04-27T03:22:13.366Z,13.10
2023-04-27T03:23:04.222Z,13.40
2023-04-27T03:23:55.077Z,13.10
2023-04-27T03:24:45.921Z,12.80
2023-04-27T03:25:36.724Z,15.30
2023-04-27T03:26:27.529Z,12.30
2023-04-27T03:27:18.062Z,11.60
2023-04-27T03:28:08.962Z,11.60
2023-04-27T03:29:00.155Z,10.70
2023-04-27T03:29:51.035Z,14.50
2023-04-27T03:30:41.911Z,11.80
2023-04-27T03:31:32.819Z,11.70
2023-04-27T03:32:23.975Z,11.10
2023-04-27T03:33:14.907Z,11.10
2023-04-27T03:34:05.816Z,13.70
2023-04-27T03:34:56.478Z,11.50
2023-04-27T03:35:47.751Z,13.40
2023-04-27T03:36:38.539Z,12.30
2023-04-27T03:37:29.325Z,12.00
2023-04-27T03:38:20.145Z,13.70
2023-04-27T03:39:11.220Z,13.40
2023-04-27T03:40:02.254Z,13.00
2023-04-27T03:40:53.145Z,12.70
2023-04-27T03:41:43.990Z,9.90
2023-04-27T03:42:34.856Z,14.10
2023-04-27T03:43:25.758Z,11.40
2023-04-27T03:44:16.661Z,11.50
2023-04-27T03:45:07.528Z,11.90
2023-04-27T03:45:58.421Z,13.90
2023-04-27T03:46:49.275Z,10.30
2023-04-27T03:47:40.225Z,9.70
2023-04-27T03:48:31.114Z,12.60
2023-04-27T03:49:22.011Z,11.40
2023-04-27T03:50:12.877Z,10.10
2023-04-27T03:51:03.754Z,10.00
2023-04-27T03:51:54.641Z,10.20
2023-04-27T03:52:45.549Z,11.90
2023-04-27T03:53:36.401Z,11.90
2023-04-27T03:54:27.270Z,9.50
2023-04-27T03:55:18.162Z,11.20
2023-04-27T03:56:09.060Z,11.40
2023-04-27T03:56:59.942Z,11.40
2023-04-27T03:57:50.836Z,11.00
2023-04-27T03:58:41.719Z,11.40
2023-04-27T03:59:32.590Z,11.10
2023-04-27T04:00:23.473Z,11.50
2023-04-27T04:01:14.348Z,10.60
2023-04-27T04:02:05.276Z,12.00
2023-04-27T04:02:56.300Z,10.90
2023-04-27T04:03:47.179Z,10.50
2023-04-27T04:04:39.123Z,10.40
2023-04-27T04:05:28.887Z,10.80
2023-04-27T04:06:19.764Z,10.70
2023-04-27T04:07:10.653Z,11.20
2023-04-27T04:08:01.560Z,11.00
2023-04-27T04:08:52.417Z,11.90
2023-04-27T04:09:43.327Z,9.60
2023-04-27T04:10:34.214Z,12.30
2023-04-27T04:11:25.103Z,9.30
2023-04-27T04:12:15.988Z,12.20
2023-04-27T04:13:06.882Z,9.00
2023-04-27T04:13:57.777Z,11.50
2023-04-27T04:14:48.674Z,12.00
2023-04-27T04:15:39.570Z,10.70
2023-04-27T04:16:30.512Z,10.70
2023-04-27T04:17:21.349Z,11.50
2023-04-27T04:18:12.242Z,11.90
2023-04-27T04:19:03.152Z,10.40
2023-04-27T04:19:54.028Z,10.70
2023-04-27T04:20:44.922Z,10.20
2023-04-27T04:21:35.772Z,10.50
2023-04-27T04:22:26.647Z,11.70
2023-04-27T04:23:17.542Z,11.80
2023-04-27T04:24:08.439Z,10.80
2023-04-27T04:24:59.351Z,12.30
2023-04-27T04:25:50.352Z,11.50
2023-04-27T04:26:41.272Z,11.60
2023-04-27T04:27:32.302Z,10.90
2023-04-27T04:28:23.161Z,14.00
2023-04-27T04:29:14.227Z,11.30
2023-04-27T04:30:05.158Z,11.70
2023-04-27T04:30:56.133Z,10.10
2023-04-27T04:31:47.069Z,11.50
2023-04-27T04:32:38.180Z,13.50
2023-04-27T04:33:29.168Z,13.30
2023-04-27T04:34:20.093Z,12.60
2023-04-27T04:35:10.934Z,12.60
2023-04-27T04:36:01.823Z,12.80
2023-04-27T04:36:52.713Z,12.90
2023-04-27T04:37:43.639Z,14.50
2023-04-27T04:38:34.509Z,10.70
2023-04-27T04:39:25.405Z,12.10
2023-04-27T04:40:16.320Z,12.10
2023-04-27T04:41:07.233Z,11.50
2023-04-27T04:41:58.793Z,11.20
2023-04-27T04:42:49.082Z,12.90
2023-04-27T04:43:39.984Z,12.60
2023-04-27T04:44:30.972Z,12.00
2023-04-27T04:45:21.854Z,12.00
2023-04-27T04:46:12.860Z,12.60
2023-04-27T04:47:03.745Z,12.50
2023-04-27T04:47:54.684Z,13.30
2023-04-27T04:48:45.553Z,13.00
2023-04-27T04:49:36.480Z,11.40
2023-04-27T04:50:27.404Z,12.90
2023-04-27T04:51:18.313Z,11.40
2023-04-27T04:52:09.240Z,11.80
2023-04-27T04:53:00.094Z,11.50
2023-04-27T04:53:50.996Z,13.20
2023-04-27T04:54:41.926Z,13.10
2023-04-27T04:55:32.833Z,14.70
2023-04-27T04:56:23.772Z,11.20
2023-04-27T04:57:14.675Z,12.40
2023-04-27T04:58:05.567Z,13.20
2023-04-27T04:58:56.463Z,12.80
2023-04-27T04:59:47.384Z,10.40
2023-04-27T05:00:38.282Z,11.50
2023-04-27T05:01:29.230Z,12.70
2023-04-27T05:02:20.242Z,11.50
2023-04-27T05:03:11.252Z,11.40
2023-04-27T05:04:02.304Z,13.50
2023-04-27T05:04:53.400Z,10.90
2023-04-27T05:05:44.314Z,11.90
2023-04-27T05:06:35.224Z,13.50
2023-04-27T05:07:26.128Z,11.80
2023-04-27T05:08:17.030Z,12.00
2023-04-27T05:09:07.988Z,14.60
2023-04-27T05:09:58.880Z,11.50
2023-04-27T05:10:49.780Z,12.60
2023-04-27T05:11:40.671Z,12.50
2023-04-27T05:12:31.577Z,12.90
2023-04-27T05:13:22.501Z,10.80
2023-04-27T05:14:13.441Z,12.10
2023-04-27T05:15:04.325Z,12.40
2023-04-27T05:15:55.270Z,13.90
2023-04-27T05:16:46.148Z,11.00
2023-04-27T05:17:37.125Z,12.90
2023-04-27T05:18:27.989Z,12.30
2023-04-27T05:19:18.888Z,10.60
2023-04-27T05:20:09.881Z,12.20
2023-04-27T05:21:00.721Z,11.80
2023-04-27T05:21:51.636Z,12.40
2023-04-27T05:22:42.544Z,10.50
2023-04-27T05:23:33.482Z,12.80
2023-04-27T05:24:24.408Z,13.80
2023-04-27T05:25:15.305Z,10.90
2023-04-27T05:26:06.221Z,11.40
2023-04-27T05:26:57.175Z,10.50
2023-04-27T05:27:48.051Z,10.50
2023-04-27T05:28:38.949Z,12.40
2023-04-27T05:29:29.865Z,12.60
2023-04-27T05:30:20.768Z,12.60
2023-04-27T05:31:11.713Z,10.50
2023-04-27T05:32:02.699Z,15.00
2023-04-27T05:32:53.648Z,13.10
2023-04-27T05:33:44.535Z,11.20
2023-04-27T05:34:35.457Z,12.60
2023-04-27T05:35:26.353Z,10.20
2023-04-27T05:36:17.246Z,11.90
2023-04-27T05:37:08.151Z,10.10
2023-04-27T05:37:59.065Z,10.60
2023-04-27T05:38:49.975Z,12.90
2023-04-27T05:39:40.920Z,11.10
2023-04-27T05:40:31.825Z,13.10
2023-04-27T05:41:22.788Z,10.30
2023-04-27T05:42:13.703Z,11.90
2023-04-27T05:43:04.597Z,12.30
2023-04-27T05:43:55.512Z,10.20
2023-04-27T05:44:46.439Z,12.70
2023-04-27T05:45:37.422Z,10.60
2023-04-27T05:46:28.389Z,9.90
2023-04-27T05:47:19.260Z,10.70
2023-04-27T05:48:10.155Z,9.60
2023-04-27T05:49:01.058Z,10.60
2023-04-27T05:49:52.024Z,11.20
2023-04-27T05:50:42.957Z,10.90
2023-04-27T05:51:33.881Z,10.60
2023-04-27T05:52:24.785Z,14.20
2023-04-27T05:53:15.688Z,11.40
2023-04-27T05:54:06.607Z,9.50
2023-04-27T05:54:57.524Z,10.80
2023-04-27T05:55:48.433Z,10.40
2023-04-27T05:56:39.349Z,9.30
2023-04-27T05:57:30.269Z,9.30
2023-04-27T05:58:21.152Z,12.90
2023-04-27T05:59:12.487Z,9.80
2023-04-27T06:00:02.864Z,15.00
2023-04-27T06:00:53.828Z,10.90
2023-04-27T06:01:44.716Z,9.80
2023-04-27T06:02:35.755Z,9.40
2023-04-27T06:03:26.951Z,9.20
2023-04-27T06:04:17.677Z,9.10
2023-04-27T06:05:08.706Z,11.30
2023-04-27T06:05:59.741Z,10.80
2023-04-27T06:06:50.589Z,10.20
2023-04-27T06:07:41.491Z,9.90
2023-04-27T06:08:32.388Z,9.70
2023-04-27T06:09:23.298Z,10.90
2023-04-27T06:10:14.215Z,8.50
2023-04-27T06:11:05.134Z,10.40
2023-04-27T06:11:56.046Z,8.70
2023-04-27T06:12:47.009Z,11.60
2023-04-27T06:13:37.871Z,11.20
2023-04-27T06:14:28.776Z,9.50
2023-04-27T06:15:19.695Z,9.70
2023-04-27T06:16:10.715Z,13.10
2023-04-27T06:17:01.613Z,10.50
2023-04-27T06:17:52.540Z,9.90
2023-04-27T06:18:43.438Z,9.60
2023-04-27T06:19:34.350Z,9.50
2023-04-27T06:20:25.282Z,11.30
2023-04-27T06:21:16.205Z,10.10
2023-04-27T06:22:07.108Z,12.50
2023-04-27T06:22:58.009Z,10.20
2023-04-27T06:23:48.980Z,12.90
2023-04-27T06:24:39.826Z,11.10
2023-04-27T06:25:30.752Z,9.60
2023-04-27T06:26:21.715Z,10.10
2023-04-27T06:27:12.582Z,9.80
2023-04-27T06:28:03.483Z,9.30
2023-04-27T06:28:54.396Z,10.10
2023-04-27T06:29:45.306Z,11.80
2023-04-27T06:30:38.223Z,9.70
2023-04-27T06:31:27.269Z,11.20
2023-04-27T06:32:18.154Z,8.40
2023-04-27T06:33:09.149Z,9.80
2023-04-27T06:34:00.023Z,11.50
2023-04-27T06:34:50.940Z,10.60
2023-04-27T06:35:41.843Z,10.80
2023-04-27T06:36:32.840Z,12.20
2023-04-27T06:37:23.701Z,11.00
2023-04-27T06:38:14.627Z,9.10
2023-04-27T06:39:05.520Z,10.80
2023-04-27T06:39:56.430Z,12.60
2023-04-27T06:40:47.357Z,9.90
2023-04-27T06:41:38.271Z,11.10
2023-04-27T06:42:29.190Z,10.40
2023-04-27T06:43:20.094Z,11.20
2023-04-27T06:44:11.024Z,11.50
2023-04-27T06:45:01.913Z,10.50
2023-04-27T06:45:52.891Z,11.00
2023-04-27T06:46:43.814Z,11.00
2023-04-27T06:47:34.653Z,8.60
2023-04-27T06:48:25.625Z,11.00
2023-04-27T06:49:16.656Z,10.30
2023-04-27T06:50:07.523Z,9.20
2023-04-27T06:50:58.445Z,12.00
2023-04-27T06:51:49.400Z,8.70
2023-04-27T06:52:40.310Z,11.70
2023-04-27T06:53:31.170Z,10.40
2023-04-27T06:54:22.117Z,10.80
2023-04-27T06:55:13.010Z,9.90
2023-04-27T06:56:03.936Z,11.90
2023-04-27T06:56:54.832Z,13.00
2023-04-27T06:57:45.735Z,10.20
2023-04-27T06:58:36.656Z,11.60
2023-04-27T06:59:27.550Z,9.70
2023-04-27T07:00:18.469Z,12.00
2023-04-27T07:01:09.554Z,9.60
2023-04-27T07:02:00.585Z,10.10
2023-04-27T07:02:51.665Z,10.00
2023-04-27T07:03:42.779Z,11.00
2023-04-27T07:04:33.253Z,9.70
2023-04-27T07:05:24.123Z,12.60
2023-04-27T07:06:15.028Z,10.40
2023-04-27T07:07:05.974Z,10.10
2023-04-27T07:07:56.845Z,9.10
2023-04-27T07:08:47.745Z,9.70
2023-04-27T07:09:38.663Z,12.90
2023-04-27T07:10:29.581Z,8.90
2023-04-27T07:11:20.494Z,9.70
2023-04-27T07:12:11.433Z,8.40
2023-04-27T07:13:02.370Z,9.20
2023-04-27T07:13:53.262Z,10.00
2023-04-27T07:14:44.164Z,9.50
2023-04-27T07:15:35.095Z,9.10
2023-04-27T07:16:26.000Z,9.40
2023-04-27T07:17:16.913Z,10.70
2023-04-27T07:18:07.868Z,9.40
2023-04-27T07:18:58.737Z,9.70
2023-04-27T07:19:49.928Z,10.40
2023-04-27T07:20:40.838Z,10.40
2023-04-27T07:21:31.766Z,9.80
2023-04-27T07:22:22.708Z,11.20
2023-04-27T07:23:13.583Z,12.30
2023-04-27T07:24:04.524Z,9.00
2023-04-27T07:24:55.439Z,9.90
2023-04-27T07:25:46.383Z,9.60
2023-04-27T07:26:37.305Z,10.40
2023-04-27T07:27:28.242Z,9.20
2023-04-27T07:28:19.152Z,9.70
2023-04-27T07:29:25.720Z,11.20
2023-04-27T07:30:01.989Z,10.60
2023-04-27T07:30:51.688Z,9.00
2023-04-27T07:31:42.623Z,10.90
2023-04-27T07:32:33.554Z,9.10
2023-04-27T07:33:24.470Z,10.90
2023-04-27T07:34:15.391Z,10.10
2023-04-27T07:35:06.311Z,8.20
2023-04-27T07:35:57.267Z,9.40
2023-04-27T07:36:48.209Z,9.60
2023-04-27T07:37:39.144Z,10.30
2023-04-27T07:38:30.058Z,10.30
2023-04-27T07:39:20.980Z,10.20
2023-04-27T07:40:11.885Z,10.70
2023-04-27T07:41:02.822Z,11.00
2023-04-27T07:41:53.780Z,9.30
2023-04-27T07:42:44.675Z,9.20
2023-04-27T07:43:35.594Z,9.70
2023-04-27T07:44:26.579Z,8.30
2023-04-27T07:45:17.429Z,10.40
2023-04-27T07:46:08.388Z,9.50
2023-04-27T07:46:59.285Z,10.80
2023-04-27T07:47:50.199Z,9.00
2023-04-27T07:48:41.103Z,11.90
2023-04-27T07:49:32.025Z,8.80
2023-04-27T07:50:23.016Z,10.80
2023-04-27T07:51:13.993Z,8.60
2023-04-27T07:52:04.941Z,8.50
2023-04-27T07:52:55.874Z,9.10
2023-04-27T07:53:47.889Z,9.80
2023-04-27T07:54:37.579Z,9.50
2023-04-27T07:55:28.486Z,9.50
2023-04-27T07:56:19.413Z,9.00
2023-04-27T07:57:10.341Z,10.30
2023-04-27T07:58:01.281Z,9.20
2023-04-27T07:58:52.191Z,10.40
2023-04-27T07:59:43.109Z,7.80
2023-04-27T08:00:34.029Z,9.30
2023-04-27T08:01:24.974Z,10.40
2023-04-27T08:02:19.769Z,8.00
2023-04-27T08:03:07.237Z,9.70
2023-04-27T08:03:57.774Z,7.90
2023-04-27T08:04:49.556Z,8.00
2023-04-27T08:05:39.600Z,11.10
2023-04-27T08:06:30.887Z,10.60
2023-04-27T08:07:21.732Z,11.70
2023-04-27T08:08:12.594Z,9.30
2023-04-27T08:09:03.027Z,10.20
2023-04-27T08:09:53.965Z,10.90
2023-04-27T08:10:44.867Z,7.10
2023-04-27T08:11:35.801Z,10.10
2023-04-27T08:12:26.699Z,10.50
2023-04-27T08:13:17.605Z,9.20
2023-04-27T08:14:08.515Z,9.20
2023-04-27T08:14:59.438Z,10.30
2023-04-27T08:15:50.363Z,11.30
2023-04-27T08:16:41.304Z,10.30
2023-04-27T08:17:32.239Z,7.90
2023-04-27T08:18:23.101Z,9.20
2023-04-27T08:19:14.202Z,9.70
2023-04-27T08:20:05.164Z,9.30
2023-04-27T08:20:56.068Z,7.90
2023-04-27T08:21:46.980Z,9.90
2023-04-27T08:22:37.883Z,10.20
2023-04-27T08:23:29.111Z,9.80
2023-04-27T08:24:19.958Z,9.10
2023-04-27T08:25:10.865Z,9.40
2023-04-27T08:26:01.806Z,9.90
2023-04-27T08:26:52.738Z,10.40
2023-04-27T08:27:43.679Z,7.80
2023-04-27T08:28:34.594Z,9.60
2023-04-27T08:29:28.546Z,9.40
2023-04-27T08:30:16.133Z,7.80
2023-04-27T08:31:07.093Z,10.70
2023-04-27T08:31:58.062Z,8.90
2023-04-27T08:32:48.977Z,8.50
2023-04-27T08:33:39.887Z,8.80
2023-04-27T08:34:30.785Z,8.70
2023-04-27T08:35:21.723Z,8.00
2023-04-27T08:36:12.624Z,11.30
2023-04-27T08:37:03.529Z,9.30
2023-04-27T08:37:54.449Z,10.30
2023-04-27T08:38:45.361Z,8.50
2023-04-27T08:39:36.244Z,8.80
2023-04-27T08:40:27.179Z,10.10
2023-04-27T08:41:21.274Z,9.10
2023-04-27T08:42:09.233Z,9.50
2023-04-27T08:43:00.158Z,9.80
2023-04-27T08:43:51.096Z,10.10
2023-04-27T08:44:42.024Z,9.20
2023-04-27T08:45:32.933Z,8.40
2023-04-27T08:46:23.903Z,10.50
2023-04-27T08:47:14.800Z,8.40
2023-04-27T08:48:05.806Z,8.80
2023-04-27T08:48:56.713Z,10.90
2023-04-27T08:49:47.638Z,8.40
2023-04-27T08:50:38.577Z,8.30
2023-04-27T08:51:29.493Z,8.00
2023-04-27T08:52:20.442Z,8.50
2023-04-27T08:53:11.367Z,8.20
2023-04-27T08:54:02.316Z,8.80
2023-04-27T08:54:53.219Z,9.30
2023-04-27T08:55:44.156Z,12.60
2023-04-27T08:56:35.107Z,8.90
2023-04-27T08:57:26.049Z,9.60
2023-04-27T08:58:16.923Z,8.20
2023-04-27T08:59:07.836Z,8.00
2023-04-27T08:59:58.716Z,7.80
2023-04-27T09:00:50.709Z,9.80
2023-04-27T09:01:40.489Z,8.60
2023-04-27T09:02:31.485Z,8.40
2023-04-27T09:03:22.584Z,8.50
2023-04-27T09:04:13.327Z,8.90
2023-04-27T09:05:04.008Z,9.00
2023-04-27T09:06:04.551Z,8.00
2023-04-27T09:06:46.337Z,8.70
2023-04-27T09:07:36.010Z,9.90
2023-04-27T09:08:26.908Z,8.20
2023-04-27T09:09:17.834Z,10.10
2023-04-27T09:10:08.718Z,8.70
2023-04-27T09:10:59.626Z,9.30
2023-04-27T09:11:50.565Z,11.10
2023-04-27T09:12:41.457Z,7.70
2023-04-27T09:13:32.405Z,8.10
2023-04-27T09:14:23.432Z,8.70
2023-04-27T09:15:14.245Z,9.40
2023-04-27T09:16:05.208Z,9.80
2023-04-27T09:16:56.142Z,9.10
2023-04-27T09:17:47.140Z,9.00
2023-04-27T09:18:38.165Z,8.60
2023-04-27T09:19:29.083Z,10.40
2023-04-27T09:20:20.043Z,8.00
2023-04-27T09:21:10.967Z,9.30
2023-04-27T09:22:01.904Z,7.60
2023-04-27T09:22:52.842Z,9.00
2023-04-27T09:23:43.791Z,8.80
2023-04-27T09:24:34.753Z,9.00
2023-04-27T09:25:25.685Z,9.70
2023-04-27T09:26:16.622Z,8.90
2023-04-27T09:27:07.608Z,8.10
2023-04-27T09:27:58.588Z,9.40
2023-04-27T09:28:49.471Z,8.90
2023-04-27T09:29:40.404Z,10.10
2023-04-27T09:30:31.359Z,7.50
2023-04-27T09:31:22.932Z,6.70
2023-04-27T09:32:14.564Z,8.70
2023-04-27T09:33:03.978Z,8.40
2023-04-27T09:33:54.888Z,7.50
2023-04-27T09:34:45.833Z,8.90
2023-04-27T09:35:36.755Z,10.00
2023-04-27T09:36:27.694Z,7.30
2023-04-27T09:37:18.631Z,8.70
2023-04-27T09:38:09.590Z,9.70
2023-04-27T09:39:00.558Z,8.60
2023-04-27T09:39:51.549Z,9.50
2023-04-27T09:40:42.467Z,7.30
2023-04-27T09:41:33.400Z,8.80
2023-04-27T09:42:24.341Z,7.60
2023-04-27T09:43:15.296Z,9.70
2023-04-27T09:44:06.212Z,8.30
2023-04-27T09:44:57.172Z,11.00
2023-04-27T09:45:48.127Z,8.10
2023-04-27T09:46:39.052Z,8.40
2023-04-27T09:47:30.016Z,9.00
2023-04-27T09:48:20.890Z,8.40
2023-04-27T09:49:11.982Z,7.70
2023-04-27T09:50:02.957Z,9.40
2023-04-27T09:50:53.892Z,8.20
2023-04-27T09:51:44.800Z,7.20
2023-04-27T09:52:35.727Z,8.70
2023-04-27T09:53:26.672Z,7.70
2023-04-27T09:54:17.604Z,7.80
2023-04-27T09:55:08.583Z,6.90
2023-04-27T09:55:59.486Z,7.40
2023-04-27T09:56:50.418Z,7.10
2023-04-27T09:57:41.367Z,10.00
2023-04-27T09:58:32.302Z,8.90
2023-04-27T09:59:23.253Z,9.90
2023-04-27T10:00:14.162Z,6.80
2023-04-27T10:01:05.122Z,6.90
2023-04-27T10:01:56.015Z,7.10
2023-04-27T10:02:53.175Z,8.20
2023-04-27T10:03:37.966Z,8.80
2023-04-27T10:04:29.178Z,8.80
2023-04-27T10:05:19.595Z,8.30
2023-04-27T10:06:10.598Z,10.00
2023-04-27T10:07:01.517Z,8.30
2023-04-27T10:07:52.409Z,8.30
2023-04-27T10:08:43.336Z,8.40
2023-04-27T10:09:34.254Z,11.40
2023-04-27T10:10:25.193Z,10.20
2023-04-27T10:11:16.098Z,8.50
2023-04-27T10:12:06.989Z,9.20
2023-04-27T10:12:57.894Z,6.80
2023-04-27T10:13:48.802Z,9.50
2023-04-27T10:14:39.716Z,7.00
2023-04-27T10:15:30.659Z,6.70
2023-04-27T10:16:21.592Z,7.60
2023-04-27T10:17:12.513Z,8.30
2023-04-27T10:18:03.502Z,8.60
2023-04-27T10:18:54.417Z,10.80
2023-04-27T10:19:45.344Z,9.10
2023-04-27T10:20:36.304Z,10.00
2023-04-27T10:21:27.246Z,7.80
2023-04-27T10:22:18.150Z,7.00
2023-04-27T10:23:09.093Z,7.30
2023-04-27T10:23:59.972Z,10.00
2023-04-27T10:24:50.870Z,9.00
2023-04-27T10:25:41.933Z,9.10
2023-04-27T10:26:33.610Z,7.20
2023-04-27T10:27:24.113Z,8.20
2023-04-27T10:28:15.007Z,6.60
2023-04-27T10:29:05.973Z,8.90
2023-04-27T10:29:56.869Z,9.80
2023-04-27T10:30:47.918Z,8.00
2023-04-27T10:31:38.860Z,7.90
2023-04-27T10:32:29.811Z,6.60
2023-04-27T10:33:20.724Z,7.20
2023-04-27T10:34:11.633Z,7.80
2023-04-27T10:35:02.546Z,8.50
2023-04-27T10:35:53.450Z,8.80
2023-04-27T10:36:44.369Z,8.60
2023-04-27T10:37:35.272Z,7.20
2023-04-27T10:38:26.198Z,7.70
2023-04-27T10:39:17.163Z,8.00
2023-04-27T10:40:08.051Z,7.00
2023-04-27T10:40:59.002Z,8.60
2023-04-27T10:41:49.912Z,8.30
2023-04-27T10:42:40.838Z,7.10
2023-04-27T10:43:31.797Z,7.20
2023-04-27T10:44:22.724Z,7.60
2023-04-27T10:45:13.668Z,7.80
2023-04-27T10:46:04.628Z,8.50
2023-04-27T10:46:55.637Z,8.90
2023-04-27T10:47:46.604Z,8.10
2023-04-27T10:48:37.503Z,6.90
2023-04-27T10:49:28.440Z,7.80
2023-04-27T10:50:19.367Z,6.50
2023-04-27T10:51:10.287Z,6.80
2023-04-27T10:52:01.224Z,7.30
2023-04-27T10:52:52.145Z,6.40
2023-04-27T10:53:43.058Z,7.30
2023-04-27T10:54:33.985Z,6.40
2023-04-27T10:55:24.901Z,7.00
2023-04-27T10:56:15.822Z,7.20
2023-04-27T10:57:06.722Z,11.30
2023-04-27T10:57:57.630Z,10.60
2023-04-27T10:58:49.510Z,10.90
2023-04-27T10:59:39.309Z,10.70
2023-04-27T11:00:30.207Z,8.20
2023-04-27T11:01:21.124Z,9.30
2023-04-27T11:02:12.233Z,7.90
2023-04-27T11:03:02.789Z,9.90